Time;durP1;ratioP1;P1;durP2;ratioP2;P2;SDS_P1;SDS_P2;PMS_P1;PMS_P2;Temp;Humidity;BMP_temperature;BMP_pressure;BME280_temperature;BME280_humidity;BME280_pressure;Samples;Min_cycle;Max_cycle;Signal;HPM_P1;HPM_P2
2023/09/09 00:02:18;;;;;;;6.65;6.07;;;;;;;23.17;62.43;101572.78;5112654;28;20028;-71
2023/09/09 00:04:44;;;;;;;9.13;6.88;;;;;;;23.01;62.26;101532.22;5109069;28;20031;-71
2023/09/09 00:07:11;;;;;;;7.45;6.75;;;;;;;23.17;62.64;101562.78;5114158;28;20035;-71
2023/09/09 00:09:37;;;;;;;7.05;6.35;;;;;;;23.17;62.28;101570.06;5120395;28;20097;-71
2023/09/09 00:12:03;;;;;;;6.43;5.82;;;;;;;23.12;62.35;101548.06;5110616;28;20020;-71
2023/09/09 00:14:29;;;;;;;7.30;6.13;;;;;;;22.91;62.41;101521.63;5118403;27;20053;-71
2023/09/09 00:16:54;;;;;;;6.82;6.22;;;;;;;23.17;62.11;101559.22;5114039;28;20028;-71
2023/09/09 00:19:21;;;;;;;5.78;5.28;;;;;;;23.17;62.35;101556.50;5109622;28;20027;-71
2023/09/09 00:21:47;;;;;;;6.60;6.00;;;;;;;23.17;62.31;101561.94;5116510;28;20039;-71
2023/09/09 00:24:12;;;;;;;6.43;5.82;;;;;;;23.10;62.10;101548.22;5112886;28;20027;-71
2023/09/09 00:26:37;;;;;;;5.88;5.32;;;;;;;23.03;62.26;101541.03;5110662;28;20051;-71
2023/09/09 00:29:03;;;;;;;6.75;6.05;;;;;;;23.16;62.12;101558.38;5116234;28;20027;-71
2023/09/09 00:31:28;;;;;;;6.30;5.70;;;;;;;23.17;62.17;101560.06;5111677;28;20057;-71
2023/09/09 00:33:54;;;;;;;6.38;5.78;;;;;;;23.07;61.88;101540.47;5112103;28;20035;-71
2023/09/09 00:36:19;;;;;;;6.50;5.90;;;;;;;23.17;61.99;101556.50;5115941;28;20028;-71
2023/09/09 00:38:44;;;;;;;6.40;5.80;;;;;;;23.11;61.95;101552.66;5110297;28;20035;-71
2023/09/09 00:41:15;;;;;;;6.65;6.05;;;;;;;23.18;62.05;101558.19;5114954;28;20032;-71
2023/09/09 00:43:41;;;;;;;6.30;5.70;;;;;;;23.18;61.82;101563.63;5112207;28;20066;-71
2023/09/09 00:46:07;;;;;;;6.63;6.03;;;;;;;23.17;62.00;101551.09;5108347;28;20032;-71
2023/09/09 00:48:32;;;;;;;6.68;6.00;;;;;;;23.04;61.73;101535.41;5115423;28;20023;-71
2023/09/09 00:50:57;;;;;;;6.50;5.80;;;;;;;23.11;61.86;101549.94;5114348;28;20076;-72
2023/09/09 00:53:23;;;;;;;6.50;5.85;;;;;;;23.13;61.80;101558.72;5108009;28;20028;-71
2023/09/09 00:55:48;;;;;;;5.95;5.35;;;;;;;23.17;61.56;101560.06;5121402;28;20027;-71
2023/09/09 00:58:14;;;;;;;6.45;5.85;;;;;;;23.17;61.69;101562.78;5113249;28;20024;-71
2023/09/09 01:00:40;;;;;;;6.57;5.97;;;;;;;23.16;61.55;101555.66;5109965;28;20063;-71
2023/09/09 01:03:05;;;;;;;7.43;5.78;;;;;;;23.06;61.72;101544.19;5120575;28;20024;-71
2023/09/09 01:05:32;;;;;;;6.70;5.85;;;;;;;23.05;61.68;101538.97;5110088;28;20096;-71
2023/09/09 01:07:57;;;;;;;6.63;5.93;;;;;;;23.17;61.45;101559.22;5111828;28;20100;-71
2023/09/09 01:10:23;;;;;;;7.25;5.95;;;;;;;23.18;61.36;101558.19;5119388;28;20020;-71
2023/09/09 01:12:50;;;;;;;6.50;5.82;;;;;;;23.17;61.24;101551.09;5108847;28;20020;-71
2023/09/09 01:15:15;;;;;;;6.40;5.80;;;;;;;23.17;61.37;101559.22;5113217;27;20020;-71
2023/09/09 01:17:41;;;;;;;6.45;5.85;;;;;;;23.17;61.37;101553.78;5116319;28;20491;-71
2023/09/09 01:20:11;;;;;;;6.00;5.40;;;;;;;23.17;61.34;101560.06;5108762;28;20039;-71
2023/09/09 01:22:37;;;;;;;6.65;6.05;;;;;;;23.15;61.34;101553.13;5106213;28;20028;-71
2023/09/09 01:25:06;;;;;;;7.13;6.43;;;;;;;23.15;61.28;101558.53;5114231;28;20054;-71
2023/09/09 01:27:32;;;;;;;6.57;5.88;;;;;;;23.16;61.18;101547.53;5107480;28;20035;-71
2023/09/09 01:29:58;;;;;;;6.90;5.65;;;;;;;23.17;61.16;101553.78;5119923;28;20084;-71
2023/09/09 01:32:23;;;;;;;7.28;6.30;;;;;;;23.16;61.30;101550.25;5108412;28;20103;-71
2023/09/09 01:34:50;;;;;;;6.72;5.93;;;;;;;22.93;61.09;101509.53;5106869;28;20062;-71
2023/09/09 01:37:15;;;;;;;7.07;6.28;;;;;;;23.16;61.20;101547.53;5106379;28;20473;-71
2023/09/09 01:39:41;;;;;;;5.70;5.10;;;;;;;23.15;60.95;101543.13;5105987;28;20032;-71
2023/09/09 01:42:06;;;;;;;6.43;5.53;;;;;;;23.16;60.94;101544.81;5112296;28;20034;-71
2023/09/09 01:44:31;;;;;;;6.22;5.63;;;;;;;23.17;60.76;101541.06;5106593;28;20046;-71
2023/09/09 01:46:56;;;;;;;6.38;5.65;;;;;;;23.08;60.99;101534.03;5105184;28;20051;-71
2023/09/09 01:49:22;;;;;;;6.13;5.53;;;;;;;23.17;60.95;101546.50;5107959;28;20140;-71
2023/09/09 01:51:47;;;;;;;5.97;5.38;;;;;;;23.17;60.96;101542.94;5107061;28;20024;-71
2023/09/09 01:54:12;;;;;;;6.32;5.63;;;;;;;23.17;60.50;101545.66;5120577;28;20020;-71
2023/09/09 01:56:38;;;;;;;6.43;5.82;;;;;;;23.14;60.58;101541.44;5109624;28;20023;-71
2023/09/09 01:59:03;;;;;;;5.78;5.07;;;;;;;23.17;60.72;101545.66;5108299;28;20110;-71
2023/09/09 02:01:28;;;;;;;7.40;6.07;;;;;;;23.18;60.63;101552.75;5117761;28;20028;-71
2023/09/09 02:03:53;;;;;;;6.45;5.82;;;;;;;23.18;60.57;101544.63;5110385;28;20039;-71
2023/09/09 02:06:19;;;;;;;7.13;5.35;;;;;;;23.17;60.55;101545.66;5109059;28;20024;-71
2023/09/09 02:08:44;;;;;;;6.40;5.80;;;;;;;23.17;60.68;101546.50;5107095;28;20070;-71
2023/09/09 02:11:10;;;;;;;6.38;5.63;;;;;;;23.11;60.55;101535.53;5111363;28;20069;-71
2023/09/09 02:13:35;;;;;;;7.38;5.57;;;;;;;23.17;60.51;101538.34;5106569;28;20020;-71
2023/09/09 02:16:06;;;;;;;6.13;5.53;;;;;;;23.09;60.38;101530.28;5112111;28;20028;-72
2023/09/09 02:18:32;;;;;;;6.60;5.60;;;;;;;23.17;60.29;101538.34;5111785;28;20031;-71
2023/09/09 02:20:58;;;;;;;6.30;5.55;;;;;;;23.18;60.32;101539.19;5110364;28;20023;-71
2023/09/09 02:23:24;;;;;;;6.32;5.10;;;;;;;23.18;60.09;101544.63;5107403;28;20035;-71
2023/09/09 02:25:49;;;;;;;5.80;5.18;;;;;;;23.15;60.09;101534.13;5110965;28;20024;-71
2023/09/09 02:28:14;;;;;;;8.02;6.00;;;;;;;23.06;60.01;101518.94;5110037;28;20024;-71
2023/09/09 02:30:43;;;;;;;7.00;6.30;;;;;;;23.10;59.93;101521.13;5108843;28;20431;-71
2023/09/09 02:33:08;;;;;;;5.50;4.95;;;;;;;23.07;59.63;101516.06;5113282;28;20023;-71
2023/09/09 02:35:33;;;;;;;8.68;5.95;;;;;;;23.02;59.96;101498.63;5108256;28;20135;-71
2023/09/09 02:37:59;;;;;;;5.85;5.25;;;;;;;23.18;59.91;101531.06;5112056;28;20031;-71
2023/09/09 02:40:24;;;;;;;6.03;5.43;;;;;;;23.02;59.97;101507.59;5113466;28;20523;-71
2023/09/09 02:42:49;;;;;;;6.07;5.45;;;;;;;23.18;59.93;101529.19;5107332;28;20032;-71
2023/09/09 02:45:15;;;;;;;7.38;6.15;;;;;;;23.10;59.76;101518.41;5114768;28;20020;-72
2023/09/09 02:47:40;;;;;;;5.68;5.18;;;;;;;23.18;59.68;101515.63;5112506;28;20091;-71
2023/09/09 02:50:06;;;;;;;6.55;5.82;;;;;;;22.99;59.66;101491.72;5106052;28;20089;-71
2023/09/09 02:52:32;;;;;;;6.28;5.68;;;;;;;23.17;59.73;101519.38;5116527;28;20024;-71
2023/09/09 02:54:57;;;;;;;5.70;5.20;;;;;;;23.16;59.57;101517.69;5112271;28;20035;-71
2023/09/09 02:57:23;;;;;;;6.45;5.38;;;;;;;23.17;59.72;101519.38;5107685;28;20019;-71
2023/09/09 02:59:48;;;;;;;6.07;5.47;;;;;;;23.17;59.49;101522.09;5116454;28;20043;-71
2023/09/09 03:02:14;;;;;;;6.25;5.65;;;;;;;23.17;59.61;101523.94;5114831;28;20028;-71
2023/09/09 03:04:39;;;;;;;6.10;5.47;;;;;;;23.14;59.52;101517.00;5108646;28;20024;-71
2023/09/09 03:07:04;;;;;;;6.47;5.40;;;;;;;23.17;59.52;101518.53;5119333;28;20069;-71
2023/09/09 03:09:31;;;;;;;5.80;5.07;;;;;;;23.16;59.37;101520.41;5112070;28;20043;-71
2023/09/09 03:11:57;;;;;;;6.00;5.50;;;;;;;23.17;59.19;101523.94;5113451;28;20029;-71
2023/09/09 03:14:23;;;;;;;6.03;5.07;;;;;;;23.17;59.44;101522.09;5121523;27;20454;-71
2023/09/09 03:16:48;;;;;;;6.03;5.43;;;;;;;23.16;59.28;101525.81;5111809;28;20032;-71
2023/09/09 03:19:14;;;;;;;5.93;5.03;;;;;;;23.16;59.26;101523.13;5117351;28;20079;-71
2023/09/09 03:21:39;;;;;;;5.35;4.80;;;;;;;23.17;59.25;101523.94;5117377;28;20691;-71
2023/09/09 03:24:05;;;;;;;5.65;5.10;;;;;;;23.16;59.29;101520.41;5112381;28;20024;-71
2023/09/09 03:26:32;;;;;;;5.85;4.75;;;;;;;23.07;59.30;101505.22;5119509;28;20023;-71
2023/09/09 03:28:57;;;;;;;5.30;4.80;;;;;;;23.16;59.21;101523.13;5114860;28;20027;-71
2023/09/09 03:31:22;;;;;;;5.32;4.82;;;;;;;23.16;59.16;101520.41;5109143;28;20043;-71
2023/09/09 03:33:48;;;;;;;5.15;4.65;;;;;;;23.17;58.97;101521.25;5107809;28;20021;-71
2023/09/09 03:36:13;;;;;;;5.70;5.18;;;;;;;22.84;59.27;101461.78;5114012;28;20030;-71
2023/09/09 03:38:39;;;;;;;5.88;4.85;;;;;;;23.17;59.15;101515.81;5108443;28;20050;-71
2023/09/09 03:41:05;;;;;;;5.38;4.75;;;;;;;23.05;58.90;101503.72;5119975;28;20535;-71
2023/09/09 03:43:30;;;;;;;5.13;4.50;;;;;;;23.16;59.15;101528.53;5114342;28;20091;-71
2023/09/09 03:45:56;;;;;;;5.00;4.50;;;;;;;23.16;58.98;101525.81;5124057;28;20020;-71
2023/09/09 03:48:22;;;;;;;5.38;4.70;;;;;;;23.01;58.93;101500.50;5112220;28;20039;-71
2023/09/09 03:50:47;;;;;;;4.93;4.47;;;;;;;23.15;58.99;101518.72;5103905;28;20028;-71
2023/09/09 03:53:12;;;;;;;5.00;4.60;;;;;;;23.15;58.91;101524.16;5109707;28;20083;-71
2023/09/09 03:55:38;;;;;;;5.10;4.60;;;;;;;23.13;58.81;101523.47;5107984;28;20032;-71
2023/09/09 03:58:03;;;;;;;5.13;4.63;;;;;;;22.99;58.72;101496.31;5108663;28;20092;-71
2023/09/09 04:00:28;;;;;;;4.53;4.13;;;;;;;23.16;58.69;101527.69;5111652;28;20032;-71
2023/09/09 04:02:53;;;;;;;5.20;4.57;;;;;;;23.16;58.85;101525.00;5109014;28;20469;-71
2023/09/09 04:05:19;;;;;;;5.28;4.78;;;;;;;23.15;58.85;101526.84;5107936;28;20027;-71
2023/09/09 04:07:44;;;;;;;4.32;3.92;;;;;;;22.99;58.60;101496.31;5112005;28;20107;-71
2023/09/09 04:10:10;;;;;;;5.07;4.60;;;;;;;23.14;58.66;101527.84;5110125;28;20444;-71
2023/09/09 04:12:36;;;;;;;5.13;4.63;;;;;;;23.15;58.75;101528.69;5111606;28;20045;-71
2023/09/09 04:15:01;;;;;;;5.20;4.70;;;;;;;23.16;58.67;101525.00;5113480;27;20044;-71
2023/09/09 04:17:26;;;;;;;5.55;4.47;;;;;;;23.10;58.61;101520.28;5110849;28;20732;-71
2023/09/09 04:19:51;;;;;;;4.82;4.30;;;;;;;23.15;58.72;101526.00;5110450;28;20028;-71
2023/09/09 04:22:17;;;;;;;5.13;4.63;;;;;;;23.14;58.46;101521.59;5110076;28;20027;-71
2023/09/09 04:24:42;;;;;;;4.53;4.13;;;;;;;23.14;58.61;101527.84;5120425;28;20056;-71
2023/09/09 04:27:07;;;;;;;5.32;4.78;;;;;;;22.93;58.57;101493.28;5109317;28;20028;-71
2023/09/09 04:29:33;;;;;;;4.60;4.20;;;;;;;23.13;58.68;101520.75;5112555;28;20115;-72
2023/09/09 04:31:58;;;;;;;4.60;4.20;;;;;;;23.13;58.64;101519.91;5111010;28;20051;-72
2023/09/09 04:34:24;;;;;;;5.05;4.55;;;;;;;23.13;58.58;101531.59;5111092;28;20053;-71
2023/09/09 04:36:49;;;;;;;5.65;4.50;;;;;;;23.14;58.36;101532.44;5101810;28;20020;-71
2023/09/09 04:39:15;;;;;;;4.70;4.30;;;;;;;23.11;58.54;101528.25;5110126;28;20032;-71
2023/09/09 04:41:41;;;;;;;4.60;4.20;;;;;;;22.92;58.50;101499.72;5113981;28;20704;-71
2023/09/09 04:44:06;;;;;;;4.47;4.07;;;;;;;23.12;58.32;101532.63;5114342;28;20027;-71
2023/09/09 04:46:32;;;;;;;5.18;4.50;;;;;;;22.92;58.48;101498.88;5107098;28;20024;-71
2023/09/09 04:48:57;;;;;;;4.40;4.00;;;;;;;23.02;58.26;101515.75;5115315;28;20047;-71
2023/09/09 04:51:22;;;;;;;4.57;4.18;;;;;;;23.11;58.47;101530.97;5113651;28;20027;-71
2023/09/09 04:53:47;;;;;;;4.43;4.03;;;;;;;23.11;58.09;101533.66;5107740;28;20488;-71
2023/09/09 04:56:13;;;;;;;5.60;4.40;;;;;;;23.03;58.25;101520.16;5117041;28;20028;-71
2023/09/09 04:58:38;;;;;;;4.72;4.22;;;;;;;23.11;58.04;101530.97;5113354;28;20024;-71
2023/09/09 05:01:03;;;;;;;4.30;3.90;;;;;;;22.92;58.40;101516.00;5108968;28;20054;-71
2023/09/09 05:03:29;;;;;;;4.05;3.65;;;;;;;23.10;58.00;101539.25;5116672;28;20020;-71
2023/09/09 05:05:54;;;;;;;4.47;4.07;;;;;;;22.95;58.01;101514.81;5110219;28;20050;-71
2023/09/09 05:08:19;;;;;;;5.00;4.50;;;;;;;23.10;58.01;101541.97;5112652;28;20043;-71
2023/09/09 05:10:44;;;;;;;4.60;4.18;;;;;;;22.92;58.03;101507.03;5116880;28;20085;-71
2023/09/09 05:13:10;;;;;;;4.32;3.90;;;;;;;23.09;58.13;101541.13;5110893;28;20024;-71
2023/09/09 05:15:35;;;;;;;4.28;3.88;;;;;;;23.09;58.09;101541.13;5117881;28;20027;-71
2023/09/09 05:18:01;;;;;;;5.20;4.72;;;;;;;23.03;58.13;101531.03;5116120;28;20542;-71
2023/09/09 05:20:27;;;;;;;4.15;3.75;;;;;;;22.86;57.95;101502.31;5109407;28;20032;-71
2023/09/09 05:22:52;;;;;;;4.32;3.92;;;;;;;23.07;57.78;101543.19;5119985;28;20026;-71
2023/09/09 05:25:17;;;;;;;4.43;3.95;;;;;;;23.08;57.91;101554.88;5115247;28;20023;-71
2023/09/09 05:27:43;;;;;;;4.10;3.70;;;;;;;23.08;57.93;101546.75;5107132;28;20092;-71
2023/09/09 05:30:09;;;;;;;4.20;3.80;;;;;;;22.98;57.89;101529.84;5117005;28;20024;-71
2023/09/09 05:32:35;;;;;;;3.88;3.58;;;;;;;22.87;57.78;101517.53;5112821;28;20050;-71
2023/09/09 05:35:00;;;;;;;4.05;3.60;;;;;;;22.93;58.09;101544.78;5106633;28;20024;-71
2023/09/09 05:37:31;;;;;;;3.88;3.47;;;;;;;22.87;57.98;101522.97;5119624;28;20055;-72
2023/09/09 05:39:57;;;;;;;4.07;3.20;;;;;;;22.93;57.70;101533.09;5120893;28;20036;-71
2023/09/09 05:42:22;;;;;;;4.20;3.80;;;;;;;23.07;57.85;101553.22;5111046;28;20051;-71
2023/09/09 05:44:48;;;;;;;3.88;3.53;;;;;;;23.07;57.84;101558.63;5118450;28;20084;-71
2023/09/09 05:47:13;;;;;;;4.13;3.30;;;;;;;23.06;57.59;101557.75;5109506;28;20063;-72
2023/09/09 05:49:39;;;;;;;3.67;3.38;;;;;;;22.81;57.63;101519.13;5108429;28;20034;-71
2023/09/09 05:52:04;;;;;;;3.60;3.30;;;;;;;23.06;57.61;101556.91;5116768;28;20016;-71
2023/09/09 05:54:30;;;;;;;4.28;3.88;;;;;;;22.86;57.76;101527.53;5120597;28;20024;-71
2023/09/09 05:56:55;;;;;;;4.00;3.60;;;;;;;22.77;57.63;101517.78;5108319;28;20047;-71
2023/09/09 05:59:20;;;;;;;3.50;3.03;;;;;;;23.06;57.67;101565.06;5110398;28;20057;-71
2023/09/09 06:01:46;;;;;;;4.28;3.55;;;;;;;22.94;57.73;101543.78;5104835;28;20116;-71
2023/09/09 06:04:15;;;;;;;3.85;3.30;;;;;;;23.06;57.75;101573.19;5108297;28;20024;-71
2023/09/09 06:06:41;;;;;;;7.13;6.43;;;;;;;22.83;55.92;101533.31;5105378;28;20032;-71
2023/09/09 06:09:06;;;;;;;7.85;7.05;;;;;;;22.79;55.83;101561.81;5107835;28;20040;-72
2023/09/09 06:11:31;;;;;;;8.93;7.93;;;;;;;22.46;56.37;101561.13;5108138;28;20055;-72
2023/09/09 06:13:57;;;;;;;8.70;7.80;;;;;;;21.89;57.18;101518.84;5109866;28;20019;-72
2023/09/09 06:16:22;;;;;;;9.30;8.35;;;;;;;21.87;58.56;101561.47;5106340;28;20020;-72
2023/09/09 06:18:47;;;;;;;10.60;9.50;;;;;;;21.77;59.21;101576.22;5111987;28;20027;-72
2023/09/09 06:21:12;;;;;;;14.40;11.85;;;;;;;21.63;59.81;101586.72;5107740;28;20049;-72
2023/09/09 06:23:38;;;;;;;12.10;10.88;;;;;;;21.50;60.52;101588.25;5108292;28;20449;-72
2023/09/09 06:26:03;;;;;;;14.10;12.38;;;;;;;21.40;61.19;101591.09;5108133;28;20069;-72
2023/09/09 06:28:28;;;;;;;15.38;13.25;;;;;;;21.22;61.98;101575.84;5108163;28;20024;-73
2023/09/09 06:30:54;;;;;;;15.48;13.95;;;;;;;21.24;62.32;101591.94;5108178;28;20396;-72
2023/09/09 06:33:20;;;;;;;15.90;14.20;;;;;;;21.03;63.31;101581.59;5108712;28;20024;-73
2023/09/09 06:35:49;;;;;;;15.32;13.70;;;;;;;21.11;63.83;101605.94;5107139;28;20057;-73
2023/09/09 06:38:15;;;;;;;18.00;16.10;;;;;;;20.78;64.42;101553.66;5120614;28;20062;-72
2023/09/09 06:40:43;;;;;;;24.45;17.92;;;;;;;21.06;64.98;101605.56;5110684;28;20208;-71
2023/09/09 06:43:08;;;;;;;22.63;20.23;;;;;;;20.77;65.31;101559.22;5108703;28;20028;-71
2023/09/09 06:45:33;;;;;;;26.88;22.35;;;;;;;21.00;65.75;101597.28;5111726;28;20074;-72
2023/09/09 06:47:59;;;;;;;24.95;22.23;;;;;;;20.73;66.38;101564.13;5124315;28;20071;-71
2023/09/09 06:50:24;;;;;;;28.27;22.77;;;;;;;20.97;67.20;101602.00;5110673;28;20024;-72
2023/09/09 06:52:49;;;;;;;27.13;24.25;;;;;;;20.62;67.71;101543.66;5116318;28;20107;-72
2023/09/09 06:55:15;;;;;;;29.30;25.48;;;;;;;20.98;68.21;101610.94;5115420;28;20023;-72
2023/09/09 06:57:40;;;;;;;32.67;27.58;;;;;;;20.89;68.52;101583.06;5111039;28;20520;-72
2023/09/09 07:00:06;;;;;;;33.50;29.45;;;;;;;20.97;68.90;101596.59;5118142;28;20027;-72
2023/09/09 07:02:31;;;;;;;33.13;29.48;;;;;;;20.97;68.84;101593.06;5114540;28;20035;-72
2023/09/09 07:04:57;;;;;;;35.83;30.65;;;;;;;21.14;69.79;101612.84;5112112;28;20028;-72
2023/09/09 07:07:22;;;;;;;40.28;34.90;;;;;;;21.15;69.37;101609.13;5117905;28;20598;-72
2023/09/09 07:09:47;;;;;;;37.25;33.22;;;;;;;21.15;69.49;101612.72;5113545;28;20031;-72
2023/09/09 07:12:13;;;;;;;50.95;38.25;;;;;;;21.26;69.54;101630.47;5113305;28;20381;-72
2023/09/09 07:14:38;;;;;;;58.85;46.15;;;;;;;21.10;69.59;101592.56;5117924;27;20052;-72
2023/09/09 07:17:04;;;;;;;59.28;44.80;;;;;;;21.30;69.93;101631.81;5112150;28;20032;-72
2023/09/09 07:19:29;;;;;;;56.35;44.85;;;;;;;21.30;70.22;101622.88;5113608;28;20039;-72
2023/09/09 07:21:54;;;;;;;64.30;49.78;;;;;;;21.36;70.61;101633.03;5118061;28;20081;-71
2023/09/09 07:24:19;;;;;;;66.25;51.05;;;;;;;21.09;71.05;101588.19;5110695;28;20039;-72
2023/09/09 07:26:45;;;;;;;61.58;48.05;;;;;;;21.19;71.22;101630.25;5117317;28;20123;-71
2023/09/09 07:29:10;;;;;;;59.78;47.08;;;;;;;21.10;71.16;101603.38;5117437;28;20032;-72
2023/09/09 07:31:35;;;;;;;61.72;49.65;;;;;;;21.24;71.24;101629.78;5109634;28;20527;-71
2023/09/09 07:34:01;;;;;;;58.30;45.65;;;;;;;21.24;71.32;101635.19;5119648;28;20035;-72
2023/09/09 07:36:26;;;;;;;55.00;43.25;;;;;;;21.13;71.30;101619.28;5100362;28;20039;-71
2023/09/09 07:38:51;;;;;;;58.25;44.58;;;;;;;21.19;71.56;101629.41;5112084;28;20027;-72
2023/09/09 07:41:17;;;;;;;52.28;41.53;;;;;;;20.95;71.69;101589.69;5118683;28;20028;-71
2023/09/09 07:43:43;;;;;;;42.75;34.92;;;;;;;21.08;71.59;101627.06;5116312;28;20038;-71
2023/09/09 07:46:08;;;;;;;39.85;32.13;;;;;;;21.25;71.50;101636.03;5111672;28;20043;-71
2023/09/09 07:48:34;;;;;;;36.13;27.67;;;;;;;21.26;70.93;101626.91;5120147;28;20023;-71
2023/09/09 07:50:59;;;;;;;32.25;26.02;;;;;;;21.30;70.14;101610.19;5111463;28;20038;-71
2023/09/09 07:53:25;;;;;;;26.92;22.55;;;;;;;21.56;69.47;101629.00;5124928;28;20087;-71
2023/09/09 07:55:51;;;;;;;26.02;21.67;;;;;;;21.45;69.16;101599.56;5118560;28;20023;-71
2023/09/09 07:58:17;;;;;;;28.13;21.92;;;;;;;21.67;68.80;101625.13;5111969;28;20023;-71
2023/09/09 08:00:43;;;;;;;25.00;21.02;;;;;;;21.61;68.26;101599.56;5114538;28;20036;-71
2023/09/09 08:03:10;;;;;;;23.33;18.63;;;;;;;21.80;67.87;101624.59;5116840;28;20110;-72
2023/09/09 08:05:36;;;;;;;20.98;17.00;;;;;;;21.79;67.01;101618.34;5109404;28;20028;-71
2023/09/09 08:08:02;;;;;;;22.65;18.67;;;;;;;22.02;66.64;101642.00;5114615;28;20118;-71
2023/09/09 08:10:27;;;;;;;20.42;16.85;;;;;;;22.07;66.55;101647.75;5106189;28;20028;-71
2023/09/09 08:12:53;;;;;;;19.83;16.65;;;;;;;21.94;66.01;101629.31;5108776;28;20051;-71
2023/09/09 08:15:18;;;;;;;20.80;17.20;;;;;;;21.99;65.77;101624.22;5115451;27;20028;-71
2023/09/09 08:17:43;;;;;;;19.50;16.15;;;;;;;22.02;65.38;101631.16;5107419;28;20016;-71
2023/09/09 08:20:09;;;;;;;16.70;14.77;;;;;;;22.03;65.48;101628.28;5108421;28;20035;-71
2023/09/09 08:22:35;;;;;;;15.50;13.77;;;;;;;22.09;65.09;101632.16;5109938;28;20461;-71
2023/09/09 08:25:00;;;;;;;17.35;13.50;;;;;;;22.12;64.74;101640.81;5107584;28;20028;-71
2023/09/09 08:27:26;;;;;;;16.23;13.50;;;;;;;22.06;64.57;101629.81;5111372;28;20024;-71
2023/09/09 08:29:52;;;;;;;14.05;12.52;;;;;;;22.09;64.35;101643.88;5107472;28;20083;-70
2023/09/09 08:32:17;;;;;;;15.40;13.35;;;;;;;22.16;64.42;101650.28;5109472;28;20016;-70
2023/09/09 08:34:42;;;;;;;13.13;11.73;;;;;;;22.34;64.40;101665.50;5109134;28;20081;-70
2023/09/09 08:37:08;;;;;;;12.82;11.40;;;;;;;22.20;63.88;101657.06;5109759;28;20032;-70
2023/09/09 08:39:33;;;;;;;13.30;11.85;;;;;;;22.10;63.91;101632.00;5109087;28;20028;-70
2023/09/09 08:41:58;;;;;;;13.70;11.55;;;;;;;22.38;63.96;101681.22;5112876;28;20035;-70
2023/09/09 08:44:45;;;;;;;10.90;9.80;;;;;;;22.39;63.75;101680.22;5111284;28;20441;-70
2023/09/09 08:47:11;;;;;;;11.98;10.65;;;;;;;21.83;63.71;101587.19;5120554;28;20028;-70
2023/09/09 08:49:39;;;;;;;11.43;10.23;;;;;;;22.19;63.56;101652.66;5111933;28;20537;-70
2023/09/09 08:52:15;;;;;;;11.68;10.48;;;;;;;22.43;63.55;101691.56;5110533;28;20031;-70
2023/09/09 08:54:41;;;;;;;10.95;9.68;;;;;;;22.43;63.44;101686.16;5108282;28;20102;-70
2023/09/09 08:57:06;;;;;;;10.93;9.68;;;;;;;22.03;63.31;101616.59;5112600;28;20469;-70
2023/09/09 08:59:32;;;;;;;10.45;9.35;;;;;;;22.21;63.18;101656.03;5111875;28;20039;-70
2023/09/09 09:01:57;;;;;;;10.70;9.60;;;;;;;22.46;63.08;101693.91;5108532;28;20028;-70
2023/09/09 09:04:23;;;;;;;9.80;8.80;;;;;;;22.43;63.18;101703.25;5112420;28;20023;-70
2023/09/09 09:06:48;;;;;;;10.95;9.85;;;;;;;22.44;63.02;101690.53;5109877;28;20105;-70
2023/09/09 09:09:17;;;;;;;10.18;9.13;;;;;;;22.31;63.27;101674.81;5110756;28;20048;-70
2023/09/09 09:11:43;;;;;;;11.68;9.80;;;;;;;22.35;63.07;101687.00;5114860;28;20039;-70
2023/09/09 09:14:08;;;;;;;10.27;9.23;;;;;;;21.94;63.06;101616.63;5121995;28;20500;-70
2023/09/09 09:16:39;;;;;;;9.32;8.43;;;;;;;22.44;63.15;101695.97;5115505;28;20095;-70
2023/09/09 09:19:04;;;;;;;9.52;8.63;;;;;;;22.22;63.21;101656.91;5115365;28;20051;-70
2023/09/09 09:21:35;;;;;;;9.52;8.63;;;;;;;22.25;62.88;101669.25;5106492;28;20033;-70
2023/09/09 09:24:01;;;;;;;9.68;8.63;;;;;;;22.39;62.95;101684.81;5118510;28;20028;-70
2023/09/09 09:26:29;;;;;;;9.68;8.68;;;;;;;22.51;63.00;101702.38;5119120;28;20031;-70
2023/09/09 09:28:54;;;;;;;9.38;8.45;;;;;;;22.51;62.95;101706.94;5108102;28;20034;-70
2023/09/09 09:31:21;;;;;;;9.50;8.60;;;;;;;22.52;62.81;101701.38;5118276;28;20102;-70
2023/09/09 09:33:48;;;;;;;9.70;8.77;;;;;;;22.52;63.03;101705.94;5120359;28;20035;-70
2023/09/09 09:36:25;;;;;;;9.52;8.63;;;;;;;22.52;62.81;101706.78;5111917;28;20023;-70
2023/09/09 09:38:51;;;;;;;9.65;8.65;;;;;;;22.34;62.98;101669.03;5116546;28;20088;-70
2023/09/09 09:41:17;;;;;;;9.65;8.70;;;;;;;22.36;62.95;101671.59;5110757;28;20071;-70
2023/09/09 09:43:42;;;;;;;9.65;8.75;;;;;;;22.35;63.06;101662.63;5114518;28;20023;-71
2023/09/09 09:46:18;;;;;;;9.80;8.80;;;;;;;22.48;63.12;101683.75;5119975;28;20027;-70
2023/09/09 09:48:44;;;;;;;9.20;8.30;;;;;;;22.47;62.87;101676.63;5110754;28;20059;-70
2023/09/09 09:51:10;;;;;;;9.90;8.90;;;;;;;22.28;62.88;101642.66;5115596;28;20043;-71
2023/09/09 09:53:47;;;;;;;9.93;8.93;;;;;;;22.55;62.80;101682.03;5113907;28;20024;-70
2023/09/09 09:56:13;;;;;;;8.55;7.65;;;;;;;22.39;62.69;101666.69;5107279;28;20039;-70
2023/09/09 09:58:38;;;;;;;9.13;8.23;;;;;;;22.42;62.95;101679.00;5119641;28;20023;-70
2023/09/09 10:01:05;;;;;;;9.00;8.20;;;;;;;22.26;62.82;101644.72;5111209;28;20020;-70
2023/09/09 10:03:45;;;;;;;10.30;8.45;;;;;;;22.49;63.09;101671.91;5109361;28;20066;-70
2023/09/09 10:06:12;;;;;;;8.77;7.88;;;;;;;22.59;63.01;101682.53;5117452;28;20024;-70
2023/09/09 10:08:41;;;;;;;9.10;8.20;;;;;;;22.58;63.10;101683.56;5110102;28;20432;-70
2023/09/09 10:11:14;;;;;;;9.18;8.27;;;;;;;22.58;62.92;101683.56;5111545;28;20114;-70
2023/09/09 10:14:10;;;;;;;9.32;8.35;;;;;;;22.59;62.84;101685.25;5117912;28;20012;-71
2023/09/09 10:16:36;;;;;;;9.15;8.25;;;;;;;22.28;62.88;101639.94;5107319;28;20165;-70
2023/09/09 10:19:03;;;;;;;9.60;8.70;;;;;;;22.26;62.86;101625.75;5108160;28;20031;-70
2023/09/09 10:21:30;;;;;;;9.00;8.07;;;;;;;22.42;63.12;101657.34;5109426;28;20020;-70
2023/09/09 10:23:56;;;;;;;9.73;8.73;;;;;;;22.25;62.93;101624.03;5109632;28;20028;-70
2023/09/09 10:26:21;;;;;;;8.70;7.80;;;;;;;22.42;62.96;101644.63;5112710;28;20035;-70
2023/09/09 10:28:48;;;;;;;8.32;7.53;;;;;;;22.16;63.07;101600.69;5123875;28;20074;-70
2023/09/09 10:31:14;;;;;;;8.35;7.53;;;;;;;22.32;63.04;101629.59;5112540;28;20026;-70
2023/09/09 10:33:41;;;;;;;9.82;8.82;;;;;;;22.54;62.98;101669.50;5110513;28;20076;-70
2023/09/09 10:36:08;;;;;;;10.13;8.15;;;;;;;22.41;63.01;101644.81;5110079;28;20027;-70
2023/09/09 10:38:33;;;;;;;8.23;7.45;;;;;;;22.63;63.14;101667.59;5111651;28;20036;-70
2023/09/09 10:40:59;;;;;;;8.65;7.72;;;;;;;22.21;62.85;101598.31;5110813;28;20672;-71
2023/09/09 10:43:24;;;;;;;9.07;7.93;;;;;;;22.52;62.86;101659.88;5111501;28;20028;-70
2023/09/09 10:45:50;;;;;;;8.45;7.70;;;;;;;22.35;63.09;101618.44;5113417;28;20024;-70
2023/09/09 10:48:20;;;;;;;8.23;7.53;;;;;;;22.51;63.13;101640.03;5112468;28;20477;-70
2023/09/09 10:50:47;;;;;;;8.38;7.50;;;;;;;22.60;63.04;101665.25;5110365;28;20027;-70
2023/09/09 10:53:22;;;;;;;9.77;8.50;;;;;;;22.66;62.77;101672.69;5114177;28;20024;-70
2023/09/09 10:55:48;;;;;;;8.15;7.40;;;;;;;22.66;62.96;101673.53;5113215;28;20036;-70
2023/09/09 10:58:18;;;;;;;8.27;7.47;;;;;;;22.45;62.72;101627.19;5111273;28;20024;-70
2023/09/09 11:00:48;;;;;;;8.48;7.57;;;;;;;22.43;62.76;101635.50;5112361;28;20027;-70
2023/09/09 11:03:16;;;;;;;9.13;8.23;;;;;;;22.68;62.84;101678.75;5112906;28;20087;-70
2023/09/09 11:06:02;;;;;;;;;;;;;;;22.68;62.70;101670.63;5112577;28;20023;-70
2023/09/09 11:08:32;;;;;;;8.63;7.82;;;;;;;22.33;62.88;101615.88;5115212;28;19919;-70
2023/09/09 11:11:31;;;;;;;8.20;7.38;;;;;;;22.57;63.07;101652.91;5111862;28;20020;-70
2023/09/09 11:14:03;;;;;;;7.85;7.13;;;;;;;22.67;62.96;101671.66;5093789;27;20085;-70
2023/09/09 11:16:30;;;;;;;8.55;7.72;;;;;;;22.67;62.99;101667.06;5114027;28;20028;-71
2023/09/09 11:18:57;;;;;;;9.15;8.25;;;;;;;22.45;62.91;101632.63;5111193;28;20032;-70